Accueil
METAR-TAF:

METAR-TAF

Aéroports :

Aéroport Jože Pučnik de Ljubljana

Ljubljana, Slovénie

latitude: 46-13N, longitude: 014-29E, altitude: 385 m

Observation

Le bulletin a été fait il y a 20 minutes, à 16:30 UTC
Vent 8 kt de ouest/sud-ouest, variant entre sud/sud-ouest et ouest
Température 21°C
Humidité 53%
Pression 1015 hPa
Visibilité 10 km ou plus
Quelques nuages à une hauteur de 4000 ft
Nuages épars à une hauteur de 5500 ft

METAR: LJLJ 141630Z 24008KT 200V260 9999 FEW040 SCT055 21/11 Q1015 NOSIG

Heure: 18:50 (16:50 UTC)

Prévision

Le bulletin a été fait il y a 5 heures et 50 minutes, à 11:00 UTC
Prévision valable du 14 à 12 UTC au 15 à 12 UTC
Vent 2 kt de direction variable
Visibilité 10 km ou plus
Quelques nuages à une hauteur de 5000 ft
Temporairement
du 14 à 12 UTC au 14 à 16 UTC
Vent 10 kt de ouest/sud-ouest

TAF: LJLJ 141100Z 1412/1512 VRB02KT 9999 FEW050 TEMPO 1412/1416 25010KT

Observations et prévisions météorologiques de plus de 4000 aéroports (messages METAR et TAF).

Les stations disponibles sont représentées par des disques jaunes et rouges sur la carte.

Passer la souris dessus pour voir le nom de la station.

Cliquer dessus pour voir les observations et prévisions météorologiques.

Pour changer de carte: cliquez sur les boutons verts avec une croix noire pour zoomer, sur le bouton vert avec un tiret pour effectuer un zoom arrière, ou sur les flèches vertes pour les cartes adjacentes.


METAR-TAF: